createdAt,value
2022-12-23T00:02:31.252Z,98408.06
2022-12-23T00:05:03.856Z,98405.13
2022-12-23T00:07:36.489Z,98405.81
2022-12-23T00:10:11.050Z,98409.27
2022-12-23T00:13:01.025Z,98405.52
2022-12-23T00:15:33.623Z,98406.25
2022-12-23T00:18:06.273Z,98406.45
2022-12-23T00:20:41.699Z,98398.56
2022-12-23T00:23:14.214Z,98401.35
2022-12-23T00:25:46.954Z,98398.77
2022-12-23T00:28:21.259Z,98400.88
2022-12-23T00:30:55.407Z,98399.64
2022-12-23T00:33:29.220Z,98403.80
2022-12-23T00:36:04.226Z,98404.66
2022-12-23T00:38:54.281Z,98402.74
2022-12-23T00:41:44.317Z,98413.14
2022-12-23T00:44:16.831Z,98407.44
2022-12-23T00:46:49.397Z,98411.26
2022-12-23T00:49:40.205Z,98408.36
2022-12-23T00:52:16.769Z,98413.58
2022-12-23T00:54:49.212Z,98412.89
2022-12-23T00:57:21.718Z,98410.98
2022-12-23T00:59:54.293Z,98412.56
2022-12-23T01:02:44.092Z,98412.91
2022-12-23T01:05:36.268Z,98411.21
2022-12-23T01:08:11.357Z,98410.02
2022-12-23T01:10:43.839Z,98408.98
2022-12-23T01:13:16.346Z,98410.34
2022-12-23T01:15:49.197Z,98415.16
2022-12-23T01:18:23.588Z,98418.42
2022-12-23T01:20:56.201Z,98415.30
2022-12-23T01:23:28.803Z,98414.60
2022-12-23T01:26:03.690Z,98414.94
2022-12-23T01:28:37.226Z,98413.04
2022-12-23T01:31:12.854Z,98412.19
2022-12-23T01:33:46.103Z,98417.39
2022-12-23T01:36:19.458Z,98411.17
2022-12-23T01:38:52.281Z,98410.14
2022-12-23T01:41:44.979Z,98408.10
2022-12-23T01:44:51.664Z,98406.57
2022-12-23T01:47:28.428Z,98408.13
2022-12-23T01:50:07.648Z,98409.98
2022-12-23T01:52:46.038Z,98409.43
2022-12-23T01:55:20.274Z,98405.08
2022-12-23T01:57:53.757Z,98405.88
2022-12-23T02:00:44.066Z,98408.29
2022-12-23T02:03:33.956Z,98403.63
2022-12-23T02:06:21.337Z,98409.89
2022-12-23T02:09:11.030Z,98411.48
2022-12-23T02:12:15.796Z,98412.04
2022-12-23T02:15:37.147Z,98414.15
2022-12-23T02:18:32.471Z,98413.98
2022-12-23T02:21:29.203Z,98413.42
2022-12-23T02:24:27.785Z,98419.98
2022-12-23T02:27:20.297Z,98423.05
2022-12-23T02:30:28.170Z,98420.59
2022-12-23T02:33:31.559Z,98424.58
2022-12-23T02:36:17.641Z,98426.66
2022-12-23T02:38:57.966Z,98426.54
2022-12-23T02:41:38.208Z,98427.27
2022-12-23T02:44:20.214Z,98429.71
2022-12-23T02:46:56.983Z,98428.20
2022-12-23T02:49:34.866Z,98421.77
2022-12-23T02:52:15.688Z,98426.27
2022-12-23T02:54:53.113Z,98425.56
2022-12-23T02:57:30.794Z,98421.03
2022-12-23T03:00:05.189Z,98429.67
2022-12-23T03:02:41.169Z,98422.89
2022-12-23T03:05:29.324Z,98423.94
2022-12-23T03:08:05.355Z,98427.59
2022-12-23T03:10:46.363Z,98425.34
2022-12-23T03:13:30.415Z,98424.50
2022-12-23T03:16:16.155Z,98426.94
2022-12-23T03:19:02.579Z,98425.73
2022-12-23T03:21:42.680Z,98422.25
2022-12-23T03:24:23.388Z,98419.64
2022-12-23T03:27:04.692Z,98422.21
2022-12-23T03:29:44.111Z,98418.05
2022-12-23T03:32:18.377Z,98419.10
2022-12-23T03:34:53.622Z,98418.08
2022-12-23T03:37:29.182Z,98416.36
2022-12-23T03:40:06.124Z,98420.36
2022-12-23T03:42:41.296Z,98419.36
2022-12-23T03:48:17.371Z,98426.98
2022-12-23T03:50:54.126Z,98430.09
2022-12-23T03:53:31.047Z,98429.88
2022-12-23T03:56:07.969Z,98428.98
2022-12-23T03:58:44.418Z,98423.96
2022-12-23T04:01:27.273Z,98432.47
2022-12-23T04:04:08.118Z,98433.18
2022-12-23T04:06:46.775Z,98434.11
2022-12-23T04:09:22.357Z,98435.69
2022-12-23T04:11:56.372Z,98435.88
2022-12-23T04:14:28.856Z,98439.19
2022-12-23T04:17:01.676Z,98438.50
2022-12-23T04:19:34.196Z,98439.02
2022-12-23T04:22:06.743Z,98442.98
2022-12-23T04:24:39.357Z,98445.02
2022-12-23T04:27:14.846Z,98453.29
2022-12-23T04:29:47.971Z,98453.63
2022-12-23T04:32:20.449Z,98460.92
2022-12-23T04:34:53.023Z,98454.52
2022-12-23T04:37:28.236Z,98453.17
2022-12-23T04:40:00.718Z,98454.08
2022-12-23T04:42:33.371Z,98455.48
2022-12-23T04:45:09.847Z,98458.98
2022-12-23T04:47:42.376Z,98459.15
2022-12-23T04:50:17.199Z,98464.18
2022-12-23T04:52:49.705Z,98470.23
2022-12-23T04:55:22.225Z,98467.09
2022-12-23T04:57:54.774Z,98472.77
2022-12-23T05:00:27.448Z,98471.02
2022-12-23T05:03:00.226Z,98473.05
2022-12-23T05:05:32.976Z,98468.89
2022-12-23T05:08:07.777Z,98469.23
2022-12-23T05:10:40.325Z,98470.29
2022-12-23T05:13:12.909Z,98471.54
2022-12-23T05:15:46.717Z,98468.08
2022-12-23T05:18:19.502Z,98466.53
2022-12-23T05:20:52.677Z,98469.13
2022-12-23T05:23:25.197Z,98469.14
2022-12-23T05:25:58.023Z,98470.17
2022-12-23T05:28:30.633Z,98468.61
2022-12-23T05:31:06.417Z,98468.95
2022-12-23T05:33:39.145Z,98467.16
2022-12-23T05:36:12.719Z,98467.48
2022-12-23T05:38:45.216Z,98468.66
2022-12-23T05:41:18.552Z,98468.65
2022-12-23T05:43:51.227Z,98467.94
2022-12-23T05:46:26.786Z,98465.86
2022-12-23T05:48:59.697Z,98471.22
2022-12-23T05:51:32.197Z,98471.61
2022-12-23T05:54:04.727Z,98474.94
2022-12-23T05:56:37.798Z,98474.42
2022-12-23T05:59:10.458Z,98469.75
2022-12-23T06:01:43.017Z,98472.23
2022-12-23T06:04:15.634Z,98475.73
2022-12-23T06:06:48.144Z,98470.52
2022-12-23T06:09:20.583Z,98477.13
2022-12-23T06:11:53.261Z,98481.65
2022-12-23T06:14:29.064Z,98480.27
2022-12-23T06:17:02.033Z,98477.98
2022-12-23T06:19:34.481Z,98477.61
2022-12-23T06:22:07.986Z,98477.02
2022-12-23T06:24:41.081Z,98480.13
2022-12-23T06:27:13.798Z,98482.00
2022-12-23T06:29:46.503Z,98479.23
2022-12-23T06:32:19.049Z,98483.74
2022-12-23T06:34:53.421Z,98482.36
2022-12-23T06:37:25.934Z,98485.66
2022-12-23T06:39:58.535Z,98483.59
2022-12-23T06:42:31.237Z,98481.71
2022-12-23T06:45:03.725Z,98474.30
2022-12-23T06:47:36.233Z,98471.39
2022-12-23T06:50:10.332Z,98475.04
2022-12-23T06:52:42.802Z,98480.79
2022-12-23T06:55:15.496Z,98474.79
2022-12-23T06:57:47.923Z,98477.94
2022-12-23T07:00:22.737Z,98481.45
2022-12-23T07:02:56.149Z,98484.09
2022-12-23T07:05:36.457Z,98491.40
2022-12-23T07:08:09.855Z,98493.02
2022-12-23T07:10:42.443Z,98501.37
2022-12-23T07:13:15.227Z,98494.62
2022-12-23T07:15:47.769Z,98493.77
2022-12-23T07:18:20.246Z,98487.38
2022-12-23T07:20:53.238Z,98483.58
2022-12-23T07:23:25.687Z,98488.10
2022-12-23T07:25:58.556Z,98490.54
2022-12-23T07:28:31.081Z,98492.31
2022-12-23T07:31:06.341Z,98498.61
2022-12-23T07:33:38.861Z,98499.19
2022-12-23T07:36:12.095Z,98498.02
2022-12-23T07:38:44.917Z,98502.06
2022-12-23T07:41:17.402Z,98500.35
2022-12-23T07:43:50.054Z,98502.30
2022-12-23T07:46:22.639Z,98503.00
2022-12-23T07:48:55.404Z,98500.23
2022-12-23T07:51:28.306Z,98496.24
2022-12-23T07:54:00.914Z,98497.84
2022-12-23T07:56:33.409Z,98501.51
2022-12-23T07:59:05.881Z,98498.05
2022-12-23T08:01:38.717Z,98495.45
2022-12-23T08:04:11.457Z,98499.14
2022-12-23T08:06:43.933Z,98501.42
2022-12-23T08:09:19.335Z,98501.45
2022-12-23T08:11:51.927Z,98503.90
2022-12-23T08:14:24.539Z,98509.31
2022-12-23T08:16:59.212Z,98509.84
2022-12-23T08:19:31.736Z,98511.58
2022-12-23T08:22:04.263Z,98508.31
2022-12-23T08:24:36.733Z,98515.61
2022-12-23T08:27:09.205Z,98509.52
2022-12-23T08:29:42.005Z,98506.06
2022-12-23T08:32:14.666Z,98506.92
2022-12-23T08:34:47.139Z,98507.66
2022-12-23T08:37:19.820Z,98507.31
2022-12-23T08:39:52.332Z,98507.86
2022-12-23T08:42:26.102Z,98502.48
2022-12-23T08:44:58.856Z,98503.02
2022-12-23T08:47:31.375Z,98500.75
2022-12-23T08:50:04.007Z,98499.53
2022-12-23T08:52:36.489Z,98495.73
2022-12-23T08:55:10.257Z,98489.81
2022-12-23T08:57:42.712Z,98489.82
2022-12-23T09:00:16.389Z,98488.77
2022-12-23T09:02:49.003Z,98486.69
2022-12-23T09:05:21.602Z,98486.34
2022-12-23T09:07:54.332Z,98477.14
2022-12-23T09:10:28.092Z,98473.29
2022-12-23T09:13:00.541Z,98473.80
2022-12-23T09:15:33.112Z,98472.57
2022-12-23T09:18:05.617Z,98475.33
2022-12-23T09:20:38.385Z,98476.20
2022-12-23T09:23:10.923Z,98466.78
2022-12-23T09:25:43.446Z,98466.79
2022-12-23T09:28:15.924Z,98468.54
2022-12-23T09:30:48.481Z,98465.75
2022-12-23T09:33:21.045Z,98458.76
2022-12-23T09:35:53.575Z,98461.53
2022-12-23T09:38:26.044Z,98460.13
2022-12-23T09:41:05.312Z,98455.42
2022-12-23T09:43:49.941Z,98453.86
2022-12-23T09:46:26.833Z,98450.71
2022-12-23T09:49:05.463Z,98450.38
2022-12-23T09:51:38.461Z,98447.45
2022-12-23T09:54:17.799Z,98436.48
2022-12-23T09:56:56.217Z,98426.91
2022-12-23T09:59:47.708Z,98424.65
2022-12-23T10:02:29.904Z,98421.50
2022-12-23T10:05:15.822Z,98422.89
2022-12-23T10:07:52.913Z,98425.98
2022-12-23T10:10:35.983Z,98426.63
2022-12-23T10:13:14.162Z,98431.27
2022-12-23T10:15:47.456Z,98424.48
2022-12-23T10:18:26.275Z,98423.20
2022-12-23T10:21:02.929Z,98422.14
2022-12-23T10:23:39.279Z,98420.05
2022-12-23T10:26:19.761Z,98418.84
2022-12-23T10:28:56.295Z,98414.46
2022-12-23T10:31:40.924Z,98410.30
2022-12-23T10:34:23.420Z,98408.89
2022-12-23T10:37:08.746Z,98398.03
2022-12-23T10:39:46.177Z,98397.64
2022-12-23T10:42:29.201Z,98397.56
2022-12-23T10:45:32.697Z,98392.26
2022-12-23T10:48:23.070Z,98389.56
2022-12-23T10:51:02.736Z,98382.17
2022-12-23T10:53:47.100Z,98381.08
2022-12-23T10:56:21.959Z,98379.35
2022-12-23T10:58:58.111Z,98378.89
2022-12-23T11:01:31.868Z,98377.04
2022-12-23T11:04:10.296Z,98379.23
2022-12-23T11:06:45.421Z,98376.20
2022-12-23T11:09:21.593Z,98379.78
2022-12-23T11:11:59.763Z,98377.06
2022-12-23T11:14:41.658Z,98371.73
2022-12-23T11:17:24.571Z,98370.25
2022-12-23T11:20:13.581Z,98367.53
2022-12-23T11:22:52.899Z,98370.52
2022-12-23T11:25:38.149Z,98371.06
2022-12-23T11:28:17.505Z,98367.60
2022-12-23T11:30:58.365Z,98370.23
2022-12-23T11:33:33.367Z,98370.23
2022-12-23T11:36:10.026Z,98373.89
2022-12-23T11:38:52.598Z,98374.95
2022-12-23T11:41:27.986Z,98381.23
2022-12-23T11:44:04.964Z,98380.71
2022-12-23T11:46:38.030Z,98378.80
2022-12-23T11:49:21.763Z,98380.72
2022-12-23T11:52:03.643Z,98376.37
2022-12-23T11:54:37.171Z,98374.64
2022-12-23T11:57:17.760Z,98369.58
2022-12-23T11:59:56.669Z,98368.54
2022-12-23T12:02:37.654Z,98363.66
2022-12-23T12:05:23.034Z,98357.94
2022-12-23T12:07:59.828Z,98357.95
2022-12-23T12:10:35.153Z,98358.31
2022-12-23T12:13:17.468Z,98362.85
2022-12-23T12:15:57.388Z,98369.47
2022-12-23T12:18:30.744Z,98367.55
2022-12-23T12:21:06.960Z,98378.52
2022-12-23T12:23:45.454Z,98377.29
2022-12-23T12:26:24.397Z,98375.89
2022-12-23T12:29:02.535Z,98377.47
2022-12-23T12:31:40.478Z,98373.83
2022-12-23T12:34:29.534Z,98378.34
2022-12-23T12:37:08.952Z,98374.67
2022-12-23T12:39:47.279Z,98372.25
2022-12-23T12:42:27.185Z,98369.98
2022-12-23T12:45:06.798Z,98369.65
2022-12-23T12:47:54.115Z,98372.08
2022-12-23T12:50:31.284Z,98368.08
2022-12-23T12:53:20.211Z,98375.03
2022-12-23T12:55:58.410Z,98366.52
2022-12-23T12:58:29.493Z,98369.12
2022-12-23T13:01:14.792Z,98371.57
2022-12-23T13:04:07.287Z,98371.38
2022-12-23T13:06:49.539Z,98371.02
2022-12-23T13:09:32.486Z,98370.49
2022-12-23T13:12:16.240Z,98366.85
2022-12-23T13:15:00.799Z,98366.32
2022-12-23T13:17:39.262Z,98369.81
2022-12-23T13:20:26.675Z,98369.11
2022-12-23T13:23:34.424Z,98368.05
2022-12-23T13:26:06.708Z,98366.84
2022-12-23T13:28:51.271Z,98361.47
2022-12-23T13:31:41.184Z,98362.34
2022-12-23T13:34:30.014Z,98361.48
2022-12-23T13:37:13.430Z,98368.41
2022-12-23T13:39:57.302Z,98364.42
2022-12-23T13:42:35.742Z,98363.05
2022-12-23T13:45:15.566Z,98363.91
2022-12-23T13:48:04.332Z,98363.05
2022-12-23T13:50:43.634Z,98361.13
2022-12-23T13:53:21.857Z,98360.77
2022-12-23T13:56:12.351Z,98367.71
2022-12-23T13:58:49.262Z,98366.85
2022-12-23T14:01:44.760Z,98361.63
2022-12-23T14:04:58.342Z,98361.45
2022-12-23T14:07:33.431Z,98364.20
2022-12-23T14:10:21.778Z,98358.98
2022-12-23T14:13:00.441Z,98352.59
2022-12-23T14:15:49.687Z,98348.59
2022-12-23T14:18:46.521Z,98355.36
2022-12-23T14:21:29.173Z,98351.36
2022-12-23T14:24:26.405Z,98363.70
2022-12-23T14:27:23.112Z,98362.13
2022-12-23T14:30:09.030Z,98360.23
2022-12-23T14:32:47.990Z,98363.89
2022-12-23T14:35:25.281Z,98369.08
2022-12-23T14:38:31.470Z,98373.75
2022-12-23T14:41:24.225Z,98371.32
2022-12-23T14:44:02.913Z,98372.70
2022-12-23T14:46:58.600Z,98378.09
2022-12-23T14:49:44.204Z,98380.52
2022-12-23T14:52:48.107Z,98381.21
2022-12-23T14:55:51.565Z,98382.09
2022-12-23T14:58:33.722Z,98381.91
2022-12-23T15:01:13.758Z,98379.13
2022-12-23T15:03:57.556Z,98373.23
2022-12-23T15:06:37.414Z,98375.66
2022-12-23T15:09:20.015Z,98376.56
2022-12-23T15:11:53.929Z,98376.21
2022-12-23T15:14:35.346Z,98369.78
2022-12-23T15:17:25.634Z,98369.09
2022-12-23T15:20:09.391Z,98366.84
2022-12-23T15:22:43.354Z,98365.11
2022-12-23T15:25:27.703Z,98367.89
2022-12-23T15:28:02.688Z,98361.64
2022-12-23T15:30:47.343Z,98361.81
2022-12-23T15:36:23.169Z,98363.02
2022-12-23T15:38:55.946Z,98360.42
2022-12-23T15:41:29.130Z,98360.42
2022-12-23T15:44:02.489Z,98357.13
2022-12-23T15:46:40.202Z,98355.73
2022-12-23T15:49:14.613Z,98357.98
2022-12-23T15:54:47.089Z,98353.62
2022-12-23T15:57:23.989Z,98351.71
2022-12-23T15:59:57.167Z,98349.80
2022-12-23T16:05:32.014Z,98347.73
2022-12-23T16:08:30.310Z,98347.90
2022-12-23T16:11:13.981Z,98352.06
2022-12-23T16:13:58.684Z,98354.15
2022-12-23T16:16:38.793Z,98351.20
2022-12-23T16:19:40.818Z,98350.67
2022-12-23T16:22:29.595Z,98355.19
2022-12-23T16:25:10.582Z,98353.98
2022-12-23T16:27:45.328Z,98350.67
2022-12-23T16:30:21.680Z,98348.41
2022-12-23T16:32:56.682Z,98352.23
2022-12-23T16:35:41.145Z,98347.71
2022-12-23T16:38:17.389Z,98349.63
2022-12-23T16:40:52.623Z,98351.53
2022-12-23T16:43:26.110Z,98350.14
2022-12-23T16:46:00.130Z,98347.89
2022-12-23T16:48:36.631Z,98348.24
2022-12-23T16:51:14.493Z,98340.77
2022-12-23T16:53:47.296Z,98341.11
2022-12-23T16:56:22.156Z,98342.68
2022-12-23T16:58:54.859Z,98343.17
2022-12-23T17:01:30.981Z,98342.84
2022-12-23T17:04:03.911Z,98339.20
2022-12-23T17:06:37.408Z,98341.63
2022-12-23T17:09:11.765Z,98337.80
2022-12-23T17:11:47.547Z,98334.15
2022-12-23T17:14:22.081Z,98332.59
2022-12-23T17:16:55.011Z,98337.80
2022-12-23T17:19:29.346Z,98344.08
2022-12-23T17:22:04.718Z,98348.94
2022-12-23T17:24:37.585Z,98348.59
2022-12-23T17:27:15.831Z,98350.32
2022-12-23T17:29:48.370Z,98347.55
2022-12-23T17:32:22.760Z,98343.04
2022-12-23T17:34:56.979Z,98341.45
2022-12-23T17:37:33.845Z,98344.06
2022-12-23T17:40:07.537Z,98343.23
2022-12-23T17:42:40.558Z,98340.27
2022-12-23T17:45:25.335Z,98343.40
2022-12-23T17:47:58.124Z,98344.96
2022-12-23T17:50:31.563Z,98347.21
2022-12-23T17:53:04.385Z,98342.52
2022-12-23T17:55:37.224Z,98332.98
2022-12-23T17:58:10.217Z,98329.67
2022-12-23T18:00:43.148Z,98329.84
2022-12-23T18:03:24.674Z,98343.39
2022-12-23T18:06:02.046Z,98344.95
2022-12-23T18:08:35.139Z,98344.27
2022-12-23T18:11:08.682Z,98339.05
2022-12-23T18:13:41.531Z,98339.39
2022-12-23T18:16:15.333Z,98345.81
2022-12-23T18:18:47.967Z,98349.81
2022-12-23T18:21:24.903Z,98349.64
2022-12-23T18:24:00.878Z,98352.94
2022-12-23T18:26:33.520Z,98349.11
2022-12-23T18:29:06.317Z,98352.59
2022-12-23T18:31:50.026Z,98355.02
2022-12-23T18:34:23.936Z,98355.19
2022-12-23T18:36:56.446Z,98363.19
2022-12-23T18:39:29.323Z,98365.79
2022-12-23T18:42:02.449Z,98363.35
2022-12-23T18:44:35.240Z,98359.73
2022-12-23T18:47:08.141Z,98367.55
2022-12-23T18:49:41.179Z,98373.63
2022-12-23T18:52:15.077Z,98371.89
2022-12-23T18:54:47.900Z,98374.84
2022-12-23T18:57:23.356Z,98376.75
2022-12-23T18:59:56.103Z,98375.37
2022-12-23T19:02:29.380Z,98381.96
2022-12-23T19:05:02.141Z,98380.23
2022-12-23T19:07:34.751Z,98380.58
2022-12-23T19:10:10.726Z,98380.23
2022-12-23T19:12:43.411Z,98384.73
2022-12-23T19:15:17.556Z,98384.73
2022-12-23T19:17:51.125Z,98388.04
2022-12-23T19:20:24.129Z,98390.30
2022-12-23T19:22:57.010Z,98399.02
2022-12-23T19:25:30.289Z,98401.79
2022-12-23T19:28:03.261Z,98402.66
2022-12-23T19:30:37.367Z,98405.10
2022-12-23T19:33:10.325Z,98407.35
2022-12-23T19:35:45.418Z,98404.56
2022-12-23T19:38:18.288Z,98404.05
2022-12-23T19:40:59.327Z,98404.08
2022-12-23T19:43:32.419Z,98404.06
2022-12-23T19:46:09.071Z,98408.23
2022-12-23T19:48:41.867Z,98406.13
2022-12-23T19:51:16.957Z,98409.09
2022-12-23T19:53:53.080Z,98404.23
2022-12-23T19:56:26.371Z,98402.14
2022-12-23T19:58:58.988Z,98400.92
2022-12-23T20:01:31.902Z,98402.66
2022-12-23T20:04:04.706Z,98406.98
2022-12-23T20:06:38.564Z,98410.80
2022-12-23T20:09:13.412Z,98419.32
2022-12-23T20:11:47.494Z,98415.85
2022-12-23T20:14:21.952Z,98412.19
2022-12-23T20:16:54.955Z,98410.08
2022-12-23T20:19:28.069Z,98405.56
2022-12-23T20:22:00.877Z,98409.39
2022-12-23T20:24:37.200Z,98410.97
2022-12-23T20:27:12.576Z,98407.50
2022-12-23T20:29:46.060Z,98405.41
2022-12-23T20:32:18.756Z,98406.48
2022-12-23T20:34:51.498Z,98406.14
2022-12-23T20:37:24.347Z,98413.25
2022-12-23T20:39:57.135Z,98414.65
2022-12-23T20:42:29.683Z,98418.12
2022-12-23T20:45:02.335Z,98416.77
2022-12-23T20:47:35.322Z,98412.92
2022-12-23T20:50:11.014Z,98416.41
2022-12-23T20:52:43.805Z,98418.33
2022-12-23T20:55:16.685Z,98415.36
2022-12-23T20:57:49.500Z,98410.31
2022-12-23T21:00:22.922Z,98409.80
2022-12-23T21:02:56.880Z,98416.08
2022-12-23T21:05:29.951Z,98421.46
2022-12-23T21:08:02.997Z,98418.52
2022-12-23T21:10:36.426Z,98414.16
2022-12-23T21:13:09.143Z,98410.68
2022-12-23T21:15:41.916Z,98405.11
2022-12-23T21:18:16.793Z,98408.23
2022-12-23T21:20:49.340Z,98414.16
2022-12-23T21:23:22.145Z,98414.50
2022-12-23T21:26:04.854Z,98409.80
2022-12-23T21:28:37.787Z,98401.81
2022-12-23T21:31:11.884Z,98400.77
2022-12-23T21:33:47.086Z,98390.68
2022-12-23T21:36:21.799Z,98379.39
2022-12-23T21:38:54.902Z,98382.34
2022-12-23T21:41:30.038Z,98380.08
2022-12-23T21:44:04.505Z,98375.04
2022-12-23T21:46:37.174Z,98366.86
2022-12-23T21:49:10.919Z,98362.69
2022-12-23T21:51:43.988Z,98363.22
2022-12-23T21:54:20.859Z,98364.63
2022-12-23T21:56:53.497Z,98364.27
2022-12-23T21:59:32.827Z,98361.98
2022-12-23T22:02:08.162Z,98358.86
2022-12-23T22:04:40.936Z,98361.98
2022-12-23T22:07:13.586Z,98359.21
2022-12-23T22:09:46.241Z,98353.66
2022-12-23T22:12:18.990Z,98350.02
2022-12-23T22:14:52.812Z,98343.59
2022-12-23T22:17:25.761Z,98338.89
2022-12-23T22:19:58.377Z,98341.67
2022-12-23T22:22:30.874Z,98340.80
2022-12-23T22:25:03.383Z,98339.23
2022-12-23T22:27:35.871Z,98341.48
2022-12-23T22:30:10.328Z,98341.48
2022-12-23T22:32:43.051Z,98339.23
2022-12-23T22:35:15.863Z,98336.63
2022-12-23T22:37:48.339Z,98338.01
2022-12-23T22:40:21.227Z,98343.73
2022-12-23T22:42:54.314Z,98346.52
2022-12-23T22:45:27.690Z,98341.14
2022-12-23T22:48:00.442Z,98339.76
2022-12-23T22:51:57.271Z,98339.23
2022-12-23T22:54:30.151Z,98342.19
2022-12-23T22:57:03.117Z,98345.31
2022-12-23T22:59:36.048Z,98345.48
2022-12-23T23:02:09.157Z,98341.83
2022-12-23T23:04:42.758Z,98344.11
2022-12-23T23:07:15.574Z,98343.04
2022-12-23T23:09:48.816Z,98335.39
2022-12-23T23:12:21.558Z,98332.80
2022-12-23T23:14:54.429Z,98333.83
2022-12-23T23:17:28.662Z,98340.61
2022-12-23T23:20:01.507Z,98338.19
2022-12-23T23:22:34.810Z,98337.14
2022-12-23T23:25:08.788Z,98339.75
2022-12-23T23:27:41.878Z,98340.80
2022-12-23T23:30:15.610Z,98339.23
2022-12-23T23:32:48.616Z,98330.02
2022-12-23T23:35:22.672Z,98322.20
2022-12-23T23:37:57.403Z,98325.14
2022-12-23T23:40:30.509Z,98326.36
2022-12-23T23:48:06.672Z,98327.23
2022-12-23T23:50:39.607Z,98329.67
2022-12-23T23:53:13.059Z,98333.84
2022-12-23T23:55:46.124Z,98328.45
2022-12-23T23:58:19.225Z,98324.28
